createdAt,value
2018-02-09T00:02:14.813Z,16.77
2018-02-09T00:04:43.038Z,16.63
2018-02-09T00:07:10.509Z,17.07
2018-02-09T00:09:37.958Z,16.03
2018-02-09T00:12:05.472Z,16.30
2018-02-09T00:14:32.917Z,16.60
2018-02-09T00:17:00.363Z,16.47
2018-02-09T00:19:27.820Z,17.77
2018-02-09T00:21:55.270Z,15.80
2018-02-09T00:24:22.731Z,17.07
2018-02-09T00:26:50.182Z,16.60
2018-02-09T00:29:17.655Z,16.67
2018-02-09T00:31:45.117Z,16.87
2018-02-09T00:34:12.587Z,15.93
2018-02-09T00:36:40.037Z,16.43
2018-02-09T00:39:07.498Z,16.63
2018-02-09T00:41:34.933Z,17.40
2018-02-09T00:44:03.178Z,15.20
2018-02-09T00:46:30.634Z,16.10
2018-02-09T00:48:58.084Z,15.93
2018-02-09T00:51:25.533Z,16.90
2018-02-09T00:53:53.005Z,16.57
2018-02-09T00:56:20.530Z,16.17
2018-02-09T00:58:48.746Z,16.17
2018-02-09T01:01:16.213Z,15.43
2018-02-09T01:03:43.670Z,16.87
2018-02-09T01:06:11.127Z,16.03
2018-02-09T01:08:38.589Z,14.77
2018-02-09T01:11:06.826Z,15.10
2018-02-09T01:13:34.291Z,15.27
2018-02-09T01:16:01.740Z,16.93
2018-02-09T01:18:29.182Z,17.30
2018-02-09T01:20:56.633Z,15.30
2018-02-09T01:23:24.107Z,16.47
2018-02-09T01:25:51.572Z,15.13
2018-02-09T01:28:19.032Z,15.90
2018-02-09T01:30:46.493Z,16.60
2018-02-09T01:33:13.956Z,16.03
2018-02-09T01:35:41.431Z,15.57
2018-02-09T01:38:08.884Z,15.07
2018-02-09T01:40:36.337Z,15.67
2018-02-09T01:43:03.799Z,15.40
2018-02-09T01:45:31.260Z,15.07
2018-02-09T01:47:58.699Z,14.47
2018-02-09T01:50:26.170Z,14.63
2018-02-09T01:52:53.630Z,15.73
2018-02-09T01:55:21.099Z,15.93
2018-02-09T01:57:48.555Z,15.33
2018-02-09T02:00:16.024Z,15.13
2018-02-09T02:02:43.485Z,14.93
2018-02-09T02:05:10.929Z,14.47
2018-02-09T02:07:38.387Z,15.63
2018-02-09T02:10:06.606Z,14.13
2018-02-09T02:12:34.050Z,15.10
2018-02-09T02:15:01.524Z,14.77
2018-02-09T02:17:28.979Z,14.67
2018-02-09T02:19:56.427Z,15.37
2018-02-09T02:22:23.882Z,15.47
2018-02-09T02:24:52.099Z,14.17
2018-02-09T02:27:19.571Z,14.73
2018-02-09T02:29:47.016Z,14.20
2018-02-09T02:32:14.473Z,14.57
2018-02-09T02:34:41.949Z,14.53
2018-02-09T02:37:09.395Z,15.33
2018-02-09T02:39:36.855Z,15.00
2018-02-09T02:42:04.315Z,13.77
2018-02-09T02:44:31.765Z,14.00
2018-02-09T02:46:59.227Z,14.47
2018-02-09T02:49:26.696Z,14.90
2018-02-09T02:51:54.172Z,13.80
2018-02-09T02:54:21.616Z,13.80
2018-02-09T02:56:49.103Z,14.17
2018-02-09T02:59:16.545Z,13.80
2018-02-09T03:01:44.000Z,13.97
2018-02-09T03:04:12.240Z,13.87
2018-02-09T03:06:39.696Z,12.40
2018-02-09T03:09:07.149Z,13.00
2018-02-09T03:11:34.610Z,13.63
2018-02-09T03:14:02.069Z,13.13
2018-02-09T03:16:29.513Z,13.70
2018-02-09T03:18:56.956Z,14.00
2018-02-09T03:21:25.186Z,12.87
2018-02-09T03:23:52.643Z,13.10
2018-02-09T03:26:20.089Z,13.37
2018-02-09T03:28:47.546Z,13.40
2018-02-09T03:31:15.017Z,13.63
2018-02-09T03:33:42.475Z,13.67
2018-02-09T03:36:09.920Z,13.93
2018-02-09T03:38:37.383Z,12.23
2018-02-09T03:41:04.839Z,12.37
2018-02-09T03:43:33.073Z,11.93
2018-02-09T03:46:00.524Z,11.83
2018-02-09T03:48:27.981Z,12.93
2018-02-09T03:50:55.437Z,12.27
2018-02-09T03:53:22.911Z,12.70
2018-02-09T03:55:50.367Z,12.03
2018-02-09T03:58:17.814Z,12.67
2018-02-09T04:00:45.266Z,13.20
2018-02-09T04:03:12.780Z,13.13
2018-02-09T04:05:40.246Z,12.63
2018-02-09T04:08:07.742Z,12.90
2018-02-09T04:10:35.953Z,13.20
2018-02-09T04:13:03.411Z,11.80
2018-02-09T04:15:30.874Z,12.60
2018-02-09T04:17:58.331Z,13.67
2018-02-09T04:20:25.793Z,12.37
2018-02-09T04:22:53.252Z,13.00
2018-02-09T04:25:20.697Z,13.03
2018-02-09T04:27:48.937Z,12.93
2018-02-09T04:30:16.375Z,13.07
2018-02-09T04:32:43.827Z,13.53
2018-02-09T04:35:11.292Z,14.20
2018-02-09T04:37:38.758Z,12.80
2018-02-09T04:40:06.215Z,14.03
2018-02-09T04:42:33.670Z,14.53
2018-02-09T04:45:01.122Z,13.77
2018-02-09T04:47:28.574Z,13.30
2018-02-09T04:49:56.800Z,13.70
2018-02-09T04:52:24.253Z,13.77
2018-02-09T04:54:51.709Z,13.83
2018-02-09T04:57:19.167Z,13.70
2018-02-09T04:59:46.648Z,14.33
2018-02-09T05:02:14.114Z,14.40
2018-02-09T05:04:41.577Z,12.80
2018-02-09T05:07:09.046Z,14.50
2018-02-09T05:09:36.508Z,14.50
2018-02-09T05:12:03.961Z,14.10
2018-02-09T05:14:31.413Z,14.70
2018-02-09T05:16:58.876Z,14.43
2018-02-09T05:19:26.335Z,15.70
2018-02-09T05:21:53.799Z,15.73
2018-02-09T05:24:21.257Z,15.33
2018-02-09T05:26:48.735Z,13.57
2018-02-09T05:29:16.205Z,14.20
2018-02-09T05:31:43.688Z,14.57
2018-02-09T05:34:11.160Z,15.57
2018-02-09T05:36:38.625Z,15.30
2018-02-09T05:39:06.062Z,15.03
2018-02-09T05:41:33.546Z,15.43
2018-02-09T05:44:00.998Z,15.57
2018-02-09T05:46:28.464Z,15.30
2018-02-09T05:48:55.912Z,15.87
2018-02-09T05:51:23.390Z,15.20
2018-02-09T05:53:50.841Z,14.70
2018-02-09T05:56:18.293Z,16.67
2018-02-09T05:58:45.769Z,17.13
2018-02-09T06:01:13.221Z,17.43
2018-02-09T06:03:40.679Z,16.17
2018-02-09T06:06:08.125Z,16.53
2018-02-09T06:08:35.862Z,16.87
2018-02-09T06:11:03.303Z,15.37
2018-02-09T06:13:30.768Z,16.47
2018-02-09T06:15:58.221Z,16.10
2018-02-09T06:18:26.175Z,16.60
2018-02-09T06:20:53.619Z,16.30
2018-02-09T06:23:21.075Z,18.10
2018-02-09T06:25:48.522Z,18.67
2018-02-09T06:28:16.754Z,17.20
2018-02-09T06:30:44.205Z,17.70
2018-02-09T06:33:11.680Z,17.23
2018-02-09T06:35:39.150Z,18.57
2018-02-09T06:38:06.621Z,15.80
2018-02-09T06:40:34.069Z,16.27
2018-02-09T06:43:01.530Z,17.00
2018-02-09T06:45:28.982Z,16.40
2018-02-09T06:47:56.453Z,16.97
2018-02-09T06:50:23.910Z,15.60
2018-02-09T06:52:51.388Z,15.37
2018-02-09T06:55:18.853Z,16.27
2018-02-09T06:57:54.891Z,15.27
2018-02-09T07:00:22.364Z,15.27
2018-02-09T07:02:49.818Z,15.80
2018-02-09T07:05:17.279Z,15.13
2018-02-09T07:07:44.746Z,14.90
2018-02-09T07:10:12.198Z,15.03
2018-02-09T07:12:39.665Z,15.37
2018-02-09T07:15:07.158Z,15.40
2018-02-09T07:17:34.625Z,14.93
2018-02-09T07:20:02.084Z,14.87
2018-02-09T07:22:29.551Z,15.43
2018-02-09T07:24:57.014Z,14.30
2018-02-09T07:27:24.487Z,14.30
2018-02-09T07:29:51.938Z,14.13
2018-02-09T07:32:19.399Z,13.70
2018-02-09T07:34:46.867Z,13.73
2018-02-09T07:37:14.323Z,14.53
2018-02-09T07:39:41.772Z,13.70
2018-02-09T07:42:09.242Z,13.90
2018-02-09T07:44:36.703Z,12.80
2018-02-09T07:47:04.162Z,13.43
2018-02-09T07:49:31.621Z,13.10
2018-02-09T07:51:59.087Z,13.17
2018-02-09T07:54:26.545Z,13.17
2018-02-09T07:56:53.989Z,12.90
2018-02-09T07:59:21.464Z,12.33
2018-02-09T08:01:48.922Z,12.70
2018-02-09T08:04:16.370Z,13.60
2018-02-09T08:06:43.832Z,12.37
2018-02-09T08:09:11.292Z,12.10
2018-02-09T08:11:38.753Z,13.30
2018-02-09T08:14:06.174Z,12.00
2018-02-09T08:16:34.395Z,11.50
2018-02-09T08:19:01.849Z,12.57
2018-02-09T08:21:29.329Z,11.53
2018-02-09T08:23:56.772Z,11.80
2018-02-09T08:26:24.217Z,12.00
2018-02-09T08:28:52.445Z,11.40
2018-02-09T08:31:20.841Z,11.17
2018-02-09T08:33:48.914Z,11.10
2018-02-09T08:36:16.402Z,11.37
2018-02-09T08:38:43.854Z,13.77
2018-02-09T08:41:11.311Z,13.07
2018-02-09T08:43:38.769Z,11.50
2018-02-09T08:46:06.223Z,11.43
2018-02-09T08:48:33.665Z,11.80
2018-02-09T08:51:01.130Z,11.70
2018-02-09T08:53:28.591Z,10.77
2018-02-09T08:55:56.054Z,10.70
2018-02-09T08:58:23.502Z,10.80
2018-02-09T09:00:50.962Z,11.33
2018-02-09T09:03:18.430Z,10.27
2018-02-09T09:05:45.879Z,11.50
2018-02-09T09:08:14.123Z,11.30
2018-02-09T09:10:41.559Z,10.07
2018-02-09T09:13:09.009Z,10.80
2018-02-09T09:15:36.463Z,10.77
2018-02-09T09:18:03.920Z,10.63
2018-02-09T09:20:31.376Z,10.83
2018-02-09T09:22:58.857Z,10.77
2018-02-09T09:25:26.311Z,10.57
2018-02-09T09:27:53.764Z,10.83
2018-02-09T09:30:22.009Z,10.63
2018-02-09T09:32:49.466Z,10.83
2018-02-09T09:35:16.926Z,11.30
2018-02-09T09:37:44.395Z,10.60
2018-02-09T09:40:11.860Z,11.13
2018-02-09T09:42:39.307Z,10.90
2018-02-09T09:45:06.787Z,10.80
2018-02-09T09:47:34.251Z,11.13
2018-02-09T09:50:01.699Z,11.57
2018-02-09T09:52:29.153Z,10.77
2018-02-09T09:54:56.620Z,10.80
2018-02-09T09:57:24.079Z,11.80
2018-02-09T09:59:51.529Z,11.70
2018-02-09T10:02:30.771Z,11.37
2018-02-09T10:04:58.216Z,11.43
2018-02-09T10:07:25.714Z,11.53
2018-02-09T10:09:53.134Z,11.03
2018-02-09T10:12:20.588Z,10.90
2018-02-09T10:14:48.031Z,11.37
2018-02-09T10:17:19.267Z,11.60
2018-02-09T10:19:46.731Z,11.53
2018-02-09T10:22:14.230Z,12.07
2018-02-09T10:24:41.723Z,11.80
2018-02-09T10:27:09.191Z,11.60
2018-02-09T10:29:36.634Z,11.83
2018-02-09T10:32:04.089Z,12.07
2018-02-09T10:34:31.557Z,13.20
2018-02-09T10:36:59.011Z,12.57
2018-02-09T10:39:26.521Z,12.57
2018-02-09T10:41:53.965Z,13.33
2018-02-09T10:44:21.415Z,12.33
2018-02-09T10:46:48.874Z,13.63
2018-02-09T10:49:16.341Z,12.97
2018-02-09T10:51:43.802Z,13.20
2018-02-09T10:54:11.278Z,12.83
2018-02-09T10:56:38.767Z,13.57
2018-02-09T10:59:06.180Z,12.27
2018-02-09T11:01:36.539Z,13.70
2018-02-09T11:04:03.992Z,12.63
2018-02-09T11:06:31.455Z,13.07
2018-02-09T11:08:58.915Z,13.70
2018-02-09T11:11:27.092Z,13.13
2018-02-09T11:13:54.559Z,13.73
2018-02-09T11:16:22.004Z,14.73
2018-02-09T11:18:49.475Z,13.03
2018-02-09T11:21:16.924Z,13.80
2018-02-09T11:23:44.386Z,13.87
2018-02-09T11:26:11.818Z,13.97
2018-02-09T11:28:40.881Z,14.70
2018-02-09T11:31:08.326Z,15.27
2018-02-09T11:33:35.796Z,13.77
2018-02-09T11:36:03.254Z,15.67
2018-02-09T11:38:30.711Z,14.23
2018-02-09T11:40:58.162Z,16.40
2018-02-09T11:43:25.617Z,14.33
2018-02-09T11:45:53.096Z,15.30
2018-02-09T11:48:20.578Z,15.73
2018-02-09T11:50:48.000Z,15.07
2018-02-09T11:53:15.474Z,15.83
2018-02-09T11:55:42.921Z,15.90
2018-02-09T11:58:10.376Z,15.90
2018-02-09T12:00:38.604Z,15.67
2018-02-09T12:03:06.057Z,16.03
2018-02-09T12:05:33.493Z,16.10
2018-02-09T12:08:00.960Z,15.67
2018-02-09T12:10:28.436Z,16.13
2018-02-09T12:12:55.882Z,16.37
2018-02-09T12:15:23.323Z,16.90
2018-02-09T12:17:51.569Z,15.37
2018-02-09T12:20:19.776Z,16.47
2018-02-09T12:22:47.997Z,16.30
2018-02-09T12:25:15.445Z,16.20
2018-02-09T12:27:42.947Z,17.37
2018-02-09T12:30:10.409Z,16.53
2018-02-09T12:32:37.916Z,16.80
2018-02-09T12:35:05.344Z,16.70
2018-02-09T12:37:32.819Z,17.10
2018-02-09T12:40:00.276Z,15.83
2018-02-09T12:42:27.771Z,17.07
2018-02-09T12:44:56.290Z,17.80
2018-02-09T12:47:23.543Z,17.93
2018-02-09T12:49:51.035Z,16.97
2018-02-09T12:52:18.505Z,17.43
2018-02-09T12:54:45.957Z,17.83
2018-02-09T12:57:13.423Z,17.57
2018-02-09T12:59:40.913Z,17.73
2018-02-09T13:02:08.395Z,17.80
2018-02-09T13:04:36.640Z,17.57
2018-02-09T13:07:04.085Z,17.27
2018-02-09T13:09:31.563Z,19.27
2018-02-09T13:11:59.008Z,17.77
2018-02-09T13:14:38.420Z,18.87
2018-02-09T13:17:05.889Z,17.03
2018-02-09T13:19:33.351Z,18.77
2018-02-09T13:22:00.811Z,19.10
2018-02-09T13:24:28.286Z,18.87
2018-02-09T13:26:55.752Z,18.40
2018-02-09T13:29:23.190Z,18.27
2018-02-09T13:31:50.652Z,18.63
2018-02-09T13:34:18.112Z,19.43
2018-02-09T13:39:55.738Z,24.15
2018-02-09T13:42:23.194Z,18.47
2018-02-09T13:44:50.638Z,18.77
2018-02-09T13:47:18.087Z,19.43
2018-02-09T13:49:46.311Z,18.27
2018-02-09T13:52:13.769Z,19.87
2018-02-09T13:54:41.221Z,17.40
2018-02-09T13:57:08.662Z,18.03
2018-02-09T13:59:36.897Z,18.63
2018-02-09T14:02:04.376Z,19.27
2018-02-09T14:04:31.839Z,18.47
2018-02-09T14:06:59.282Z,19.37
2018-02-09T14:09:26.738Z,19.87
2018-02-09T14:11:54.209Z,18.37
2018-02-09T14:14:21.654Z,20.40
2018-02-09T14:16:49.129Z,19.40
2018-02-09T14:19:16.565Z,19.80
2018-02-09T14:21:44.041Z,19.53
2018-02-09T14:24:11.515Z,25.45
2018-02-09T14:26:38.977Z,20.07
2018-02-09T14:29:06.483Z,18.73
2018-02-09T14:31:34.714Z,19.33
2018-02-09T14:34:02.159Z,19.00
2018-02-09T14:36:29.638Z,20.80
2018-02-09T14:38:57.088Z,18.63
2018-02-09T14:41:24.561Z,19.63
2018-02-09T14:43:52.022Z,19.73
2018-02-09T14:46:19.471Z,20.40
2018-02-09T14:48:46.939Z,19.33
2018-02-09T14:51:14.396Z,20.13
2018-02-09T14:53:41.864Z,20.77
2018-02-09T14:56:09.323Z,20.70
2018-02-09T14:58:36.783Z,19.47
2018-02-09T15:01:04.264Z,19.70
2018-02-09T15:06:07.382Z,20.47
2018-02-09T15:08:34.864Z,19.97
2018-02-09T15:11:02.304Z,20.87
2018-02-09T15:13:29.763Z,19.40
2018-02-09T15:15:57.235Z,20.77
2018-02-09T15:18:24.695Z,20.43
2018-02-09T15:20:52.138Z,22.97
2018-02-09T15:23:19.627Z,20.70
2018-02-09T15:25:47.086Z,21.00
2018-02-09T15:28:14.528Z,21.70
2018-02-09T15:30:41.992Z,21.17
2018-02-09T15:33:09.450Z,19.73
2018-02-09T15:35:36.909Z,20.80
2018-02-09T15:38:04.350Z,21.27
2018-02-09T15:40:32.574Z,20.63
2018-02-09T15:43:00.024Z,20.70
2018-02-09T15:45:27.460Z,20.20
2018-02-09T15:47:55.684Z,21.33
2018-02-09T15:50:23.120Z,20.00
2018-02-09T15:52:50.562Z,19.90
2018-02-09T15:55:18.773Z,20.03
2018-02-09T15:57:46.234Z,20.93
2018-02-09T16:00:13.690Z,21.33
2018-02-09T16:02:41.220Z,19.93
2018-02-09T16:05:08.637Z,19.90
2018-02-09T16:07:36.100Z,20.70
2018-02-09T16:10:03.564Z,20.20
2018-02-09T16:12:31.045Z,20.40
2018-02-09T16:14:58.477Z,19.13
2018-02-09T16:17:25.930Z,19.17
2018-02-09T16:19:53.397Z,19.00
2018-02-09T16:22:20.871Z,19.20
2018-02-09T16:24:48.316Z,20.53
2018-02-09T16:27:15.805Z,19.03
2018-02-09T16:29:43.271Z,18.23
2018-02-09T16:32:10.730Z,19.10
2018-02-09T16:34:38.211Z,20.37
2018-02-09T16:37:05.660Z,19.00
2018-02-09T16:39:33.120Z,18.30
2018-02-09T16:42:00.593Z,19.13
2018-02-09T16:44:28.061Z,17.20
2018-02-09T16:46:55.511Z,18.10
2018-02-09T16:49:22.959Z,20.17
2018-02-09T16:51:50.407Z,19.43
2018-02-09T16:54:17.852Z,19.27
2018-02-09T16:56:45.323Z,18.37
2018-02-09T16:59:12.795Z,18.63
2018-02-09T17:01:40.315Z,19.43
2018-02-09T17:04:07.804Z,17.67
2018-02-09T17:06:35.215Z,18.77
2018-02-09T17:09:02.669Z,18.87
2018-02-09T17:11:30.142Z,19.67
2018-02-09T17:13:57.612Z,18.23
2018-02-09T17:16:25.068Z,19.60
2018-02-09T17:18:52.531Z,19.63
2018-02-09T17:21:20.006Z,19.33
2018-02-09T17:23:47.458Z,19.30
2018-02-09T17:26:14.916Z,19.83
2018-02-09T17:28:42.377Z,18.63
2018-02-09T17:31:09.877Z,18.80
2018-02-09T17:33:38.117Z,18.67
2018-02-09T17:36:05.596Z,18.67
2018-02-09T17:38:33.060Z,19.87
2018-02-09T17:41:00.510Z,20.20
2018-02-09T17:43:27.984Z,19.13
2018-02-09T17:45:55.438Z,18.83
2018-02-09T17:48:22.903Z,17.90
2018-02-09T17:50:51.159Z,18.83
2018-02-09T17:53:18.664Z,19.57
2018-02-09T17:55:46.906Z,20.10
2018-02-09T17:58:14.361Z,20.07
2018-02-09T18:00:41.808Z,20.67
2018-02-09T18:03:09.266Z,20.03
2018-02-09T18:05:36.726Z,19.70
2018-02-09T18:08:05.799Z,20.23
2018-02-09T18:10:33.243Z,19.33
2018-02-09T18:13:00.698Z,20.23
2018-02-09T18:15:28.150Z,18.20
2018-02-09T18:17:56.395Z,18.87
2018-02-09T18:20:24.607Z,18.47
2018-02-09T18:22:52.064Z,18.87
2018-02-09T18:25:19.516Z,20.30
2018-02-09T18:27:46.985Z,18.00
2018-02-09T18:30:14.441Z,19.00
2018-02-09T18:32:41.921Z,19.37
2018-02-09T18:35:09.462Z,19.33
2018-02-09T18:37:36.929Z,17.97
2018-02-09T18:40:04.424Z,18.23
2018-02-09T18:42:32.806Z,18.50
2018-02-09T18:45:00.270Z,18.83
2018-02-09T18:47:27.737Z,18.73
2018-02-09T18:49:55.242Z,18.37
2018-02-09T18:52:23.491Z,17.23
2018-02-09T18:54:50.974Z,17.43
2018-02-09T18:57:18.426Z,17.87
2018-02-09T18:59:45.892Z,18.47
2018-02-09T19:02:13.358Z,17.77
2018-02-09T19:04:40.812Z,18.63
2018-02-09T19:07:08.330Z,16.60
2018-02-09T19:09:35.792Z,17.97
2018-02-09T19:12:03.255Z,18.83
2018-02-09T19:14:30.700Z,17.00
2018-02-09T19:16:58.183Z,18.13
2018-02-09T19:19:25.646Z,18.33
2018-02-09T19:21:53.116Z,17.83
2018-02-09T19:24:20.610Z,18.83
2018-02-09T19:26:48.116Z,19.00
2018-02-09T19:29:16.334Z,17.83
2018-02-09T19:31:43.803Z,18.03
2018-02-09T19:34:11.277Z,18.73
2018-02-09T19:36:38.726Z,17.17
2018-02-09T19:39:06.195Z,17.97
2018-02-09T19:41:33.671Z,17.57
2018-02-09T19:44:01.159Z,18.43
2018-02-09T19:46:29.375Z,17.33
2018-02-09T19:48:56.833Z,16.97
2018-02-09T19:51:24.319Z,18.07
2018-02-09T19:53:51.773Z,19.03
2018-02-09T19:56:19.234Z,19.13
2018-02-09T19:58:46.729Z,19.47
2018-02-09T20:01:14.208Z,18.73
2018-02-09T20:03:41.675Z,18.83
2018-02-09T20:06:09.905Z,19.40
2018-02-09T20:08:37.371Z,19.60
2018-02-09T20:11:04.857Z,17.73
2018-02-09T20:13:32.302Z,17.70
2018-02-09T20:15:59.764Z,18.33
2018-02-09T20:18:27.239Z,18.40
2018-02-09T20:20:54.714Z,19.17
2018-02-09T20:23:22.169Z,19.33
2018-02-09T20:25:49.631Z,17.50
2018-02-09T20:28:17.093Z,18.53
2018-02-09T20:30:44.562Z,18.57
2018-02-09T20:33:12.013Z,18.40
2018-02-09T20:35:39.475Z,18.70
2018-02-09T20:38:06.963Z,19.20
2018-02-09T20:40:34.420Z,17.90
2018-02-09T20:43:01.892Z,17.60
2018-02-09T20:45:29.342Z,19.30
2018-02-09T20:47:56.802Z,18.33
2018-02-09T20:50:24.245Z,19.13
2018-02-09T20:52:51.710Z,18.67
2018-02-09T20:55:19.147Z,19.13
2018-02-09T20:57:46.662Z,19.73
2018-02-09T21:00:14.115Z,19.80
2018-02-09T21:02:41.589Z,18.07
2018-02-09T21:05:09.066Z,19.33
2018-02-09T21:07:36.669Z,18.90
2018-02-09T21:10:04.143Z,17.77
2018-02-09T21:12:31.640Z,19.20
2018-02-09T21:14:59.075Z,19.70
2018-02-09T21:17:26.537Z,18.63
2018-02-09T21:19:54.018Z,18.23
2018-02-09T21:22:21.460Z,19.30
2018-02-09T21:24:48.938Z,18.50
2018-02-09T21:27:16.361Z,19.07
2018-02-09T21:29:43.825Z,17.53
2018-02-09T21:32:11.275Z,19.10
2018-02-09T21:34:38.745Z,17.83
2018-02-09T21:37:06.215Z,18.43
2018-02-09T21:39:33.681Z,19.30
2018-02-09T21:42:01.124Z,17.67
2018-02-09T21:44:29.343Z,18.00
2018-02-09T21:46:56.810Z,19.20
2018-02-09T21:49:24.286Z,19.23
2018-02-09T21:51:51.739Z,18.20
2018-02-09T21:54:19.200Z,17.23
2018-02-09T21:56:46.654Z,18.23
2018-02-09T21:59:14.112Z,18.27
2018-02-09T22:01:41.578Z,18.37
2018-02-09T22:04:09.026Z,19.13
2018-02-09T22:06:36.466Z,17.77
2018-02-09T22:09:04.704Z,18.57
2018-02-09T22:11:32.146Z,18.13
2018-02-09T22:13:59.618Z,18.37
2018-02-09T22:16:27.089Z,18.87
2018-02-09T22:18:54.553Z,18.93
2018-02-09T22:21:22.023Z,19.70
2018-02-09T22:23:49.481Z,17.17
2018-02-09T22:26:16.937Z,18.07
2018-02-09T22:28:44.390Z,19.23
2018-02-09T22:31:11.866Z,18.23
2018-02-09T22:33:39.323Z,19.53
2018-02-09T22:36:06.781Z,18.20
2018-02-09T22:38:34.234Z,18.67
2018-02-09T22:41:01.704Z,18.50
2018-02-09T22:43:29.171Z,19.43
2018-02-09T22:45:56.631Z,19.90
2018-02-09T22:48:24.088Z,17.83
2018-02-09T22:50:51.542Z,19.27
2018-02-09T22:53:18.989Z,19.93
2018-02-09T22:55:46.462Z,18.57
2018-02-09T22:58:13.924Z,19.03
2018-02-09T23:00:41.389Z,17.93
2018-02-09T23:03:08.831Z,18.50
2018-02-09T23:05:37.062Z,19.00
2018-02-09T23:08:04.524Z,18.10
2018-02-09T23:10:31.978Z,17.87
2018-02-09T23:12:59.439Z,18.83
2018-02-09T23:15:26.902Z,18.93
2018-02-09T23:17:54.368Z,17.53
2018-02-09T23:20:21.813Z,19.03
2018-02-09T23:22:49.260Z,19.07
2018-02-09T23:25:16.726Z,21.07
2018-02-09T23:27:44.185Z,18.80
2018-02-09T23:30:11.641Z,19.23
2018-02-09T23:32:39.116Z,20.17
2018-02-09T23:35:06.552Z,19.20
2018-02-09T23:37:34.792Z,18.80
2018-02-09T23:40:02.244Z,20.07
2018-02-09T23:42:29.719Z,19.17
2018-02-09T23:44:57.176Z,19.30
2018-02-09T23:47:24.644Z,19.83
2018-02-09T23:49:52.122Z,19.00
2018-02-09T23:52:19.582Z,19.10
2018-02-09T23:54:47.022Z,19.23
2018-02-09T23:57:14.480Z,20.03
2018-02-09T23:59:41.945Z,18.90
